Time;durP1;ratioP1;P1;durP2;ratioP2;P2;SDS_P1;SDS_P2;PMS_P1;PMS_P2;Temp;Humidity;BMP_temperature;BMP_pressure;BME280_temperature;BME280_humidity;BME280_pressure;Samples;Min_cycle;Max_cycle;Signal;HPM_P1;HPM_P2
2022/11/11 00:01:12;;;;;;;17.30;8.80;;;11.30;92.30;;;;;;5032986;28;20028;-74
2022/11/11 00:03:39;;;;;;;21.52;10.32;;;11.30;92.30;;;;;;5031747;28;20041;-73
2022/11/11 00:06:16;;;;;;;15.98;8.73;;;11.30;92.40;;;;;;5033361;28;20033;-73
2022/11/11 00:08:47;;;;;;;16.33;10.00;;;11.30;92.40;;;;;;5012759;28;20037;-74
2022/11/11 00:11:14;;;;;;;17.80;9.10;;;11.30;92.40;;;;;;5026004;28;20496;-73
2022/11/11 00:13:41;;;;;;;18.13;9.35;;;11.20;92.60;;;;;;5023293;28;20496;-74
2022/11/11 00:16:12;;;;;;;20.95;7.65;;;11.20;92.60;;;;;;5017704;28;20017;-73
2022/11/11 00:27:16;;;;;;;18.83;9.68;;;11.10;92.70;;;;;;5026315;28;20045;-74
2022/11/11 00:29:46;;;;;;;20.42;9.73;;;11.10;92.90;;;;;;5029177;28;20025;-74
2022/11/11 00:32:25;;;;;;;14.27;7.72;;;11.20;92.80;;;;;;5028924;28;20075;-74
2022/11/11 00:37:42;;;;;;;18.50;9.45;;;11.20;92.80;;;;;;5037584;28;20087;-73
2022/11/11 00:40:15;;;;;;;20.02;10.02;;;11.20;92.70;;;;;;5027600;28;20088;-74
2022/11/11 00:42:41;;;;;;;24.98;14.07;;;11.20;92.70;;;;;;5029794;28;20049;-73
2022/11/11 00:45:07;;;;;;;23.20;9.70;;;11.20;92.80;;;;;;5026328;28;20042;-74
2022/11/11 00:53:14;;;;;;;17.45;11.50;;;11.30;92.70;;;;;;5022449;28;20041;-73
2022/11/11 00:55:39;;;;;;;16.85;10.48;;;11.20;92.80;;;;;;5022207;28;20044;-74
2022/11/11 00:58:05;;;;;;;17.45;10.15;;;11.30;92.70;;;;;;5026420;28;20018;-73
2022/11/11 01:00:31;;;;;;;14.60;10.32;;;11.20;92.80;;;;;;5017394;28;20037;-73
2022/11/11 01:02:57;;;;;;;19.92;10.43;;;11.30;92.90;;;;;;5027257;28;20040;-74
2022/11/11 01:05:24;;;;;;;22.50;14.27;;;11.30;93.20;;;;;;5030809;28;20025;-73
2022/11/11 01:07:50;;;;;;;22.98;14.18;;;11.30;92.80;;;;;;5032523;28;20025;-73
2022/11/11 01:10:37;;;;;;;20.60;14.13;;;11.30;93.30;;;;;;5029128;28;20117;-73
2022/11/11 01:13:13;;;;;;;24.00;13.82;;;11.30;93.00;;;;;;5021442;28;20044;-73
2022/11/11 01:15:45;;;;;;;22.60;13.23;;;11.30;93.00;;;;;;5018830;28;20034;-74
2022/11/11 01:18:12;;;;;;;25.02;13.77;;;11.30;93.00;;;;;;5022195;28;20156;-74
2022/11/11 01:20:39;;;;;;;18.13;12.90;;;11.30;93.10;;;;;;5027255;28;20064;-73
2022/11/11 01:23:05;;;;;;;17.50;10.93;;;11.30;93.00;;;;;;5017316;28;20033;-74
2022/11/11 01:25:37;;;;;;;20.98;13.68;;;11.40;92.90;;;;;;5020497;28;20030;-73
2022/11/11 01:28:06;;;;;;;20.45;13.38;;;11.40;92.80;;;;;;5014610;28;20429;-73
2022/11/11 01:30:33;;;;;;;22.60;14.77;;;11.40;92.90;;;;;;5016440;28;20018;-73
2022/11/11 01:33:01;;;;;;;24.10;15.02;;;11.40;92.80;;;;;;5020912;28;20026;-74
2022/11/11 01:35:27;;;;;;;17.92;12.10;;;11.40;93.00;;;;;;5029568;28;20025;-74
2022/11/11 01:37:53;;;;;;;21.63;15.02;;;11.40;92.90;;;;;;5017239;28;20073;-74
2022/11/11 01:40:20;;;;;;;19.45;14.48;;;11.40;92.90;;;;;;5024796;28;20025;-74
2022/11/11 01:42:51;;;;;;;24.90;14.77;;;11.40;92.80;;;;;;5028346;28;20045;-73
2022/11/11 01:45:45;;;;;;;19.75;12.48;;;11.50;92.90;;;;;;5023838;28;20030;-72
2022/11/11 01:51:18;;;;;;;22.67;13.13;;;11.50;92.80;;;;;;5018387;28;20045;-73
2022/11/11 01:53:47;;;;;;;30.85;19.02;;;11.50;92.80;;;;;;5013244;28;20021;-73
2022/11/11 01:56:13;;;;;;;24.80;17.02;;;11.50;92.80;;;;;;5020108;28;20056;-74
2022/11/11 01:58:39;;;;;;;25.13;18.00;;;11.50;92.80;;;;;;5020302;28;20049;-73
2022/11/11 02:01:05;;;;;;;25.73;16.42;;;11.50;93.00;;;;;;5023109;28;20083;-74
2022/11/11 02:03:37;;;;;;;21.08;15.75;;;11.50;92.90;;;;;;5017918;28;20033;-72
2022/11/11 02:06:04;;;;;;;30.48;17.63;;;11.60;92.90;;;;;;5017988;28;20060;-74
2022/11/11 02:08:34;;;;;;;24.13;18.95;;;11.60;92.90;;;;;;5018999;28;20444;-74
2022/11/11 02:11:09;;;;;;;19.75;15.68;;;11.60;92.90;;;;;;5029185;28;20201;-73
2022/11/11 02:16:24;;;;;;;25.77;18.10;;;11.60;92.90;;;;;;5017353;28;20043;-72
2022/11/11 02:18:50;;;;;;;28.77;16.70;;;11.50;93.00;;;;;;5015364;28;20030;-75
2022/11/11 02:21:36;;;;;;;27.05;19.30;;;11.50;93.10;;;;;;5021352;28;20030;-72
2022/11/11 02:24:13;;;;;;;24.52;14.85;;;11.50;93.30;;;;;;5017669;28;20077;-73
2022/11/11 02:26:39;;;;;;;27.20;16.38;;;11.50;93.30;;;;;;5022703;28;20025;-74
2022/11/11 02:29:13;;;;;;;20.65;13.02;;;11.50;93.20;;;;;;5008984;28;20095;-74
2022/11/11 02:31:40;;;;;;;23.20;16.15;;;11.60;93.20;;;;;;5021031;28;20119;-73
2022/11/11 02:34:05;;;;;;;22.75;13.05;;;11.60;93.20;;;;;;5017409;28;20042;-74
2022/11/11 02:36:31;;;;;;;25.83;16.30;;;11.70;93.00;;;;;;5026278;28;20032;-73
2022/11/11 02:38:57;;;;;;;25.02;17.85;;;11.70;93.00;;;;;;5025023;28;20523;-74
2022/11/11 02:44:07;;;;;;;21.40;13.60;;;11.60;93.10;;;;;;5019796;28;20036;-74
2022/11/11 02:46:33;;;;;;;29.83;19.38;;;11.60;93.20;;;;;;5023693;28;20022;-73
2022/11/11 02:48:58;;;;;;;27.98;18.77;;;11.60;93.20;;;;;;5016316;28;20018;-73
2022/11/11 02:51:24;;;;;;;20.00;12.73;;;11.60;93.20;;;;;;5021114;28;20027;-74
2022/11/11 02:53:50;;;;;;;22.52;14.88;;;11.70;93.20;;;;;;5027334;28;20434;-74
2022/11/11 02:57:05;;;;;;;24.60;15.82;;;11.70;92.90;;;;;;5014946;28;20535;-74
2022/11/11 02:59:03;;;;;;;19.85;14.15;;;11.70;93.00;;;;;;5028747;28;20034;-72
2022/11/11 03:01:28;;;;;;;28.73;20.65;;;11.70;93.00;;;;;;5037463;28;20026;-72
2022/11/11 03:03:54;;;;;;;28.60;17.58;;;11.70;93.10;;;;;;5025681;28;20034;-73
2022/11/11 03:06:20;;;;;;;23.63;16.67;;;11.80;93.10;;;;;;5014116;28;20104;-73
2022/11/11 03:08:45;;;;;;;29.73;18.73;;;11.80;93.00;;;;;;5022973;28;20065;-73
2022/11/11 03:11:12;;;;;;;29.95;18.98;;;11.70;93.10;;;;;;5017071;28;20812;-74
2022/11/11 03:13:37;;;;;;;28.30;18.63;;;11.80;92.90;;;;;;5020684;28;20112;-74
2022/11/11 03:16:04;;;;;;;28.20;18.17;;;11.70;93.10;;;;;;5017075;28;20172;-73
2022/11/11 03:18:30;;;;;;;29.92;18.33;;;11.70;93.10;;;;;;5022583;28;20404;-74
2022/11/11 03:21:04;;;;;;;20.58;16.05;;;11.70;93.10;;;;;;5015286;28;20022;-74
2022/11/11 03:23:30;;;;;;;18.65;12.82;;;11.70;93.00;;;;;;5026480;28;20162;-73
2022/11/11 03:25:56;;;;;;;18.85;13.93;;;11.70;93.00;;;;;;5009224;28;20100;-73
2022/11/11 03:28:23;;;;;;;22.08;14.82;;;11.70;92.90;;;;;;5018456;28;20033;-72
2022/11/11 03:30:50;;;;;;;22.50;16.02;;;11.60;93.20;;;;;;5009328;28;20495;-73
2022/11/11 03:33:17;;;;;;;23.60;15.45;;;11.70;93.20;;;;;;5012948;28;20025;-73
2022/11/11 03:35:45;;;;;;;27.15;19.75;;;11.70;93.20;;;;;;5012348;28;20393;-73
2022/11/11 03:38:15;;;;;;;30.98;18.58;;;11.70;93.20;;;;;;5026805;28;20730;-74
2022/11/11 03:40:47;;;;;;;22.88;16.17;;;11.60;93.40;;;;;;5025155;28;20021;-73
2022/11/11 03:43:15;;;;;;;23.60;15.75;;;11.70;93.40;;;;;;5014261;28;20034;-74
2022/11/11 03:45:42;;;;;;;23.35;15.05;;;11.70;93.30;;;;;;5026680;28;20571;-74
2022/11/11 03:48:08;;;;;;;20.60;15.40;;;11.70;93.10;;;;;;5022610;28;20022;-73
2022/11/11 03:50:33;;;;;;;28.08;19.27;;;11.70;93.30;;;;;;5027733;28;20710;-73
2022/11/11 03:52:59;;;;;;;26.52;17.48;;;11.70;93.20;;;;;;5013692;28;20022;-74
2022/11/11 03:55:25;;;;;;;25.30;18.02;;;11.70;93.20;;;;;;5022181;28;20034;-74
2022/11/11 03:57:51;;;;;;;28.13;17.33;;;11.70;93.10;;;;;;5015892;28;20048;-73
2022/11/11 04:00:19;;;;;;;24.20;15.80;;;11.70;93.20;;;;;;5024663;28;20056;-73
2022/11/11 04:11:07;;;;;;;21.63;14.80;;;11.60;93.40;;;;;;5026424;28;20088;-73
2022/11/11 04:16:17;;;;;;;25.27;15.38;;;11.60;93.20;;;;;;5026051;28;20029;-74
2022/11/11 04:21:42;;;;;;;21.70;15.25;;;11.70;93.30;;;;;;5029097;28;20570;-74
2022/11/11 04:26:59;;;;;;;25.50;13.77;;;11.70;93.20;;;;;;5013439;28;20045;-74
2022/11/11 04:29:29;;;;;;;23.40;14.50;;;11.70;93.20;;;;;;5020472;28;20080;-73
2022/11/11 04:34:43;;;;;;;21.88;14.20;;;11.80;93.10;;;;;;5019154;28;20056;-73
2022/11/11 04:37:08;;;;;;;22.92;13.75;;;11.80;93.00;;;;;;5023277;28;20548;-74
2022/11/11 04:42:18;;;;;;;23.42;13.93;;;11.70;93.00;;;;;;5022641;28;20040;-74
2022/11/11 04:47:28;;;;;;;25.25;17.70;;;11.70;93.00;;;;;;5021385;28;20108;-73
2022/11/11 04:49:54;;;;;;;20.45;12.88;;;11.70;92.90;;;;;;5018690;28;20033;-74
2022/11/11 04:52:25;;;;;;;25.65;17.70;;;11.70;92.90;;;;;;5023956;28;20076;-74
2022/11/11 04:57:45;;;;;;;29.52;17.08;;;11.60;93.00;;;;;;5018403;28;20040;-73
2022/11/11 05:00:14;;;;;;;25.27;17.48;;;11.60;93.10;;;;;;5020809;28;20168;-73
2022/11/11 05:05:28;;;;;;;17.67;10.98;;;11.70;92.80;;;;;;5015063;28;20131;-74
2022/11/11 05:10:38;;;;;;;27.75;15.75;;;11.70;92.90;;;;;;5019132;28;20064;-73
2022/11/11 05:21:25;;;;;;;17.02;9.40;;;11.60;93.00;;;;;;5014762;28;20049;-72
2022/11/11 05:26:35;;;;;;;30.88;16.25;;;11.50;93.20;;;;;;5014706;28;20132;-73
2022/11/11 05:29:01;;;;;;;25.23;12.77;;;11.50;93.10;;;;;;5020806;28;20096;-73
2022/11/11 05:31:28;;;;;;;19.13;13.82;;;11.50;93.10;;;;;;5017936;28;20034;-74
2022/11/11 05:33:54;;;;;;;24.75;15.45;;;11.50;93.10;;;;;;5015760;28;20060;-73
2022/11/11 05:36:20;;;;;;;27.48;15.90;;;11.40;93.20;;;;;;5016465;28;20025;-74
2022/11/11 05:38:46;;;;;;;20.85;14.65;;;11.40;93.30;;;;;;5013596;28;20030;-73
2022/11/11 05:41:15;;;;;;;27.67;16.08;;;11.40;93.30;;;;;;5019655;28;20029;-74
2022/11/11 05:43:40;;;;;;;25.80;15.60;;;11.40;93.30;;;;;;5024067;28;20041;-74
2022/11/11 05:46:06;;;;;;;18.58;11.05;;;11.40;93.40;;;;;;5017216;28;20025;-73
2022/11/11 05:48:31;;;;;;;23.13;16.35;;;11.40;93.30;;;;;;5017556;28;20033;-73
2022/11/11 05:50:58;;;;;;;21.58;13.43;;;11.40;93.30;;;;;;5017257;28;20071;-72
2022/11/11 05:53:24;;;;;;;22.90;13.98;;;11.40;93.40;;;;;;5023058;28;20022;-73
2022/11/11 05:55:50;;;;;;;25.13;11.38;;;11.30;93.30;;;;;;5013575;28;20036;-72
2022/11/11 05:58:19;;;;;;;15.55;9.45;;;11.40;93.30;;;;;;5041349;28;20083;-73
2022/11/11 06:00:45;;;;;;;19.00;12.87;;;11.40;93.20;;;;;;5015639;28;20034;-74
2022/11/11 06:03:11;;;;;;;19.58;12.98;;;11.30;93.20;;;;;;5019003;28;20345;-74
2022/11/11 06:05:37;;;;;;;19.25;11.80;;;11.40;93.30;;;;;;5019855;28;20500;-73
2022/11/11 06:08:04;;;;;;;20.98;11.82;;;11.40;93.30;;;;;;5012415;28;20105;-73
2022/11/11 06:10:30;;;;;;;21.92;11.63;;;11.30;93.40;;;;;;5017043;28;20392;-75
2022/11/11 06:13:03;;;;;;;24.90;13.30;;;11.30;93.50;;;;;;5023198;28;20032;-73
2022/11/11 06:15:36;;;;;;;22.52;15.73;;;11.30;93.40;;;;;;5025876;28;20037;-73
2022/11/11 06:18:06;;;;;;;22.77;14.50;;;11.30;93.40;;;;;;5016651;28;20480;-74
2022/11/11 06:20:34;;;;;;;26.80;13.65;;;11.30;93.30;;;;;;5019855;28;20037;-73
2022/11/11 06:23:01;;;;;;;24.73;15.63;;;11.30;93.30;;;;;;5014315;28;20033;-74
2022/11/11 06:28:13;;;;;;;27.17;16.75;;;11.30;93.40;;;;;;5020824;28;20615;-74
2022/11/11 06:30:39;;;;;;;18.75;12.40;;;11.20;93.40;;;;;;5014341;28;20100;-74
2022/11/11 06:33:06;;;;;;;29.85;16.50;;;11.20;93.50;;;;;;5011509;28;20483;-74
2022/11/11 06:35:36;;;;;;;21.52;15.65;;;11.10;93.60;;;;;;5020181;28;20034;-73
2022/11/11 06:38:03;;;;;;;26.40;16.58;;;11.10;93.70;;;;;;5019980;28;20603;-73
2022/11/11 06:40:29;;;;;;;20.92;13.55;;;11.20;93.70;;;;;;5026060;28;20020;-74
2022/11/11 06:42:59;;;;;;;20.80;14.10;;;11.20;93.60;;;;;;5016318;28;20096;-74
2022/11/11 06:45:26;;;;;;;20.63;13.07;;;11.20;93.50;;;;;;5023832;28;20033;-75
2022/11/11 06:47:51;;;;;;;22.95;15.60;;;11.20;93.40;;;;;;5020066;28;20026;-74
2022/11/11 06:50:17;;;;;;;25.60;17.17;;;11.10;93.50;;;;;;5017212;28;20109;-72
2022/11/11 06:52:43;;;;;;;21.85;13.02;;;11.20;93.60;;;;;;5017571;28;20466;-73
2022/11/11 06:55:09;;;;;;;17.38;11.95;;;11.20;93.50;;;;;;5023626;28;20025;-74
2022/11/11 06:57:35;;;;;;;18.98;12.30;;;11.20;93.50;;;;;;5020104;28;20492;-74
2022/11/11 07:00:03;;;;;;;29.00;17.10;;;11.20;93.40;;;;;;5020404;28;20029;-73
2022/11/11 07:02:28;;;;;;;24.33;14.93;;;11.30;93.40;;;;;;5015010;28;20022;-74
2022/11/11 07:04:54;;;;;;;22.75;14.70;;;11.30;93.30;;;;;;5022040;28;20492;-73
2022/11/11 07:07:20;;;;;;;24.52;16.92;;;11.30;93.20;;;;;;5017526;28;20040;-74
2022/11/11 07:09:45;;;;;;;18.00;12.45;;;11.30;93.20;;;;;;5017654;28;20052;-74
2022/11/11 07:12:11;;;;;;;24.35;15.57;;;11.30;93.10;;;;;;5020829;28;20120;-75
2022/11/11 07:14:37;;;;;;;30.98;18.45;;;11.30;93.00;;;;;;5016425;28;20022;-75
2022/11/11 07:17:05;;;;;;;26.25;18.23;;;11.30;93.00;;;;;;5020160;28;20625;-74
2022/11/11 07:19:31;;;;;;;22.20;14.18;;;11.30;92.90;;;;;;5003313;28;20067;-74
2022/11/11 07:21:56;;;;;;;28.83;18.60;;;11.30;92.90;;;;;;5021244;28;20053;-75
2022/11/11 07:24:22;;;;;;;29.10;20.38;;;11.30;92.70;;;;;;5016436;28;20057;-75
2022/11/11 07:26:48;;;;;;;26.10;16.23;;;11.30;92.50;;;;;;5018963;28;20133;-75
2022/11/11 07:29:15;;;;;;;21.33;14.55;;;11.20;92.40;;;;;;5016167;28;20056;-75
2022/11/11 07:31:41;;;;;;;23.55;17.02;;;11.20;92.50;;;;;;5021984;28;20029;-75
2022/11/11 07:34:07;;;;;;;17.75;11.55;;;11.20;92.40;;;;;;5016625;28;20026;-77
2022/11/11 07:36:33;;;;;;;30.58;19.10;;;11.20;92.60;;;;;;5023005;28;20028;-74
2022/11/11 07:38:59;;;;;;;31.02;19.38;;;11.10;92.60;;;;;;5022025;28;20014;-74
2022/11/11 07:41:25;;;;;;;26.85;18.40;;;11.10;92.50;;;;;;5019044;28;20045;-75
2022/11/11 07:43:50;;;;;;;28.95;19.25;;;11.00;92.40;;;;;;5014445;28;20522;-75
2022/11/11 07:46:16;;;;;;;23.08;16.65;;;11.10;92.60;;;;;;5023657;28;20535;-75
2022/11/11 07:48:42;;;;;;;27.55;17.70;;;11.00;92.50;;;;;;5024067;28;20395;-75
2022/11/11 07:51:07;;;;;;;26.80;19.45;;;11.00;92.50;;;;;;5017984;28;20021;-76
2022/11/11 07:53:33;;;;;;;28.80;20.02;;;11.00;92.50;;;;;;5023888;28;20079;-75
2022/11/11 07:55:59;;;;;;;29.88;19.25;;;11.00;92.40;;;;;;5018802;28;20796;-74
2022/11/11 07:58:24;;;;;;;35.28;23.83;;;11.00;92.30;;;;;;5018957;28;20036;-75
2022/11/11 08:00:53;;;;;;;34.38;22.13;;;10.80;92.30;;;;;;5025233;28;20087;-76
2022/11/11 08:03:19;;;;;;;27.30;18.83;;;10.80;92.60;;;;;;5028228;28;20037;-75
2022/11/11 08:05:44;;;;;;;35.67;23.77;;;10.70;92.60;;;;;;5027929;28;20041;-75
2022/11/11 08:08:10;;;;;;;36.30;22.23;;;10.50;92.70;;;;;;5027555;28;20017;-74
2022/11/11 08:10:36;;;;;;;35.05;23.13;;;10.40;93.10;;;;;;5020404;28;20033;-73
2022/11/11 08:15:47;;;;;;;34.25;19.80;;;10.40;93.30;;;;;;5011615;28;20081;-75
2022/11/11 08:18:15;;;;;;;35.55;24.55;;;10.40;93.40;;;;;;5026114;28;20553;-74
2022/11/11 08:20:41;;;;;;;33.53;21.05;;;10.30;93.30;;;;;;5023937;28;20026;-74
2022/11/11 08:23:09;;;;;;;36.47;24.92;;;10.20;93.50;;;;;;5014473;28;20087;-74
2022/11/11 08:25:36;;;;;;;34.60;23.40;;;10.20;93.70;;;;;;5011158;28;20045;-75
2022/11/11 08:28:03;;;;;;;35.38;21.77;;;10.20;93.60;;;;;;5020531;28;20032;-76
2022/11/11 08:30:31;;;;;;;30.75;22.50;;;10.20;93.60;;;;;;5015137;28;20087;-75
2022/11/11 08:33:01;;;;;;;30.98;23.10;;;10.10;93.60;;;;;;5025800;28;20809;-76
2022/11/11 08:35:27;;;;;;;;;;;10.20;93.50;;;;;;5021715;28;20026;-76
2022/11/11 08:37:53;;;;;;;34.33;22.85;;;10.20;93.50;;;;;;5019816;28;20720;-77
2022/11/11 08:40:19;;;;;;;29.20;20.15;;;10.10;93.60;;;;;;5015350;28;20033;-75
2022/11/11 08:42:45;;;;;;;28.30;16.73;;;10.10;93.60;;;;;;5021351;28;20135;-74
2022/11/11 08:45:11;;;;;;;27.20;18.98;;;10.30;93.50;;;;;;5020907;28;20034;-73
2022/11/11 08:47:37;;;;;;;34.75;18.70;;;10.30;93.20;;;;;;5022999;28;20049;-75
2022/11/11 08:50:04;;;;;;;25.50;17.55;;;10.30;93.10;;;;;;5029623;28;20029;-75
2022/11/11 08:52:29;;;;;;;27.85;19.33;;;10.40;92.90;;;;;;5011205;28;20092;-75
2022/11/11 08:54:55;;;;;;;31.58;17.83;;;10.40;92.80;;;;;;5028686;28;20033;-74
2022/11/11 08:57:20;;;;;;;24.17;16.10;;;10.50;92.50;;;;;;5028146;28;20025;-75
2022/11/11 08:59:46;;;;;;;22.98;15.73;;;10.50;92.50;;;;;;5028093;28;20061;-75
2022/11/11 09:02:13;;;;;;;24.15;16.73;;;10.60;92.40;;;;;;5013836;28;20033;-75
2022/11/11 09:04:40;;;;;;;18.77;13.38;;;10.70;92.20;;;;;;5021780;28;20037;-75
2022/11/11 09:07:08;;;;;;;23.52;15.20;;;10.70;92.10;;;;;;5017517;28;20030;-74
2022/11/11 09:09:34;;;;;;;27.10;15.77;;;10.70;91.90;;;;;;5018342;28;20038;-75
2022/11/11 09:11:59;;;;;;;18.60;12.43;;;10.80;91.70;;;;;;5019913;28;20455;-75
2022/11/11 09:14:25;;;;;;;20.30;11.82;;;10.90;91.60;;;;;;5018777;28;20022;-75
2022/11/11 09:16:52;;;;;;;21.35;12.88;;;11.00;91.50;;;;;;5023758;28;20037;-74
2022/11/11 09:19:17;;;;;;;15.55;10.27;;;11.10;91.70;;;;;;5020717;28;20089;-75
2022/11/11 09:21:43;;;;;;;11.68;7.15;;;11.30;91.30;;;;;;5020519;28;20100;-74
2022/11/11 09:24:09;;;;;;;15.68;10.63;;;11.50;91.30;;;;;;5015917;28;20077;-75
2022/11/11 09:26:35;;;;;;;12.82;8.70;;;11.70;91.10;;;;;;5018913;28;20036;-73
2022/11/11 09:29:00;;;;;;;19.20;11.57;;;11.90;91.00;;;;;;5026278;28;20075;-75
2022/11/11 09:31:26;;;;;;;18.33;12.02;;;12.10;89.90;;;;;;5019020;28;20025;-74
2022/11/11 09:33:52;;;;;;;16.38;11.25;;;12.20;88.50;;;;;;5020723;28;20079;-74
2022/11/11 09:36:19;;;;;;;18.20;11.15;;;12.20;87.50;;;;;;5027082;28;20027;-75
2022/11/11 09:38:44;;;;;;;18.80;12.05;;;12.20;87.30;;;;;;5026613;28;20036;-75
2022/11/11 09:41:54;;;;;;;18.38;11.90;;;12.10;87.30;;;;;;5022913;28;20017;-75
2022/11/11 09:44:43;;;;;;;20.83;12.40;;;12.20;87.40;;;;;;5006825;28;20033;-75
2022/11/11 09:47:37;;;;;;;16.58;12.18;;;12.20;86.80;;;;;;5019615;28;20042;-76
2022/11/11 09:50:12;;;;;;;16.30;10.65;;;12.20;87.10;;;;;;5016513;28;20021;-75
2022/11/11 09:52:59;;;;;;;16.05;10.20;;;12.30;87.60;;;;;;5023153;28;20053;-76
2022/11/11 09:55:57;;;;;;;16.40;11.07;;;12.40;87.00;;;;;;5020836;28;20033;-76
2022/11/11 09:58:30;;;;;;;17.58;11.68;;;12.60;87.00;;;;;;5024297;28;20416;-75
2022/11/11 10:01:37;;;;;;;16.20;10.70;;;12.70;85.70;;;;;;5021877;28;20071;-74
2022/11/11 10:04:43;;;;;;;18.50;10.85;;;12.80;85.60;;;;;;5012163;28;20054;-74
2022/11/11 10:07:19;;;;;;;16.48;10.65;;;12.80;85.00;;;;;;5024070;28;20021;-75
2022/11/11 10:10:11;;;;;;;14.57;10.75;;;12.90;85.00;;;;;;5027422;28;20719;-75
2022/11/11 10:12:53;;;;;;;15.63;10.98;;;13.00;84.50;;;;;;5022203;28;20029;-73
2022/11/11 10:15:19;;;;;;;18.05;11.50;;;13.20;84.00;;;;;;5009615;28;20161;-74
2022/11/11 10:18:11;;;;;;;12.15;8.05;;;13.20;83.70;;;;;;5025098;28;20033;-77
2022/11/11 10:20:41;;;;;;;14.23;9.80;;;13.30;83.70;;;;;;5015838;28;20432;-76
2022/11/11 10:23:14;;;;;;;15.38;10.95;;;13.50;83.00;;;;;;5023448;28;20112;-77
2022/11/11 10:26:15;;;;;;;14.70;10.02;;;13.70;82.80;;;;;;5017395;28;20013;-77
2022/11/11 10:28:42;;;;;;;;;;;13.90;81.80;;;;;;5025522;28;20022;-75
2022/11/11 10:31:16;;;;;;;13.68;8.70;;;14.10;81.10;;;;;;5019587;28;19909;-76
2022/11/11 10:33:50;;;;;;;13.43;9.07;;;14.20;80.60;;;;;;5012398;28;20380;-75
2022/11/11 10:36:18;;;;;;;14.40;8.88;;;14.30;79.80;;;;;;5015186;28;20068;-76
2022/11/11 10:39:24;;;;;;;16.45;8.80;;;14.30;79.60;;;;;;5022357;28;20028;-76
2022/11/11 10:41:51;;;;;;;12.82;7.90;;;14.40;79.80;;;;;;5024602;28;20126;-75
2022/11/11 10:44:27;;;;;;;11.98;7.88;;;14.60;79.30;;;;;;5021153;28;20037;-77
2022/11/11 10:46:56;;;;;;;14.35;8.13;;;15.00;78.70;;;;;;5019063;28;20025;-75
2022/11/11 10:49:26;;;;;;;14.48;7.85;;;15.20;76.40;;;;;;5026478;28;20404;-76
2022/11/11 10:51:55;;;;;;;;;;;15.30;76.20;;;;;;5018397;28;20021;-77
2022/11/11 10:54:30;;;;;;;15.40;8.57;;;15.30;76.80;;;;;;5014732;28;20661;-76
2022/11/11 10:57:04;;;;;;;10.18;7.25;;;15.50;76.30;;;;;;5012741;28;20094;-76
2022/11/11 10:59:44;;;;;;;13.27;7.72;;;15.60;75.50;;;;;;5022247;28;20021;-76
2022/11/11 11:02:16;;;;;;;9.82;6.30;;;15.90;75.00;;;;;;5020573;28;20025;-76
2022/11/11 11:05:11;;;;;;;11.27;6.88;;;16.10;73.80;;;;;;5028068;28;20034;-76
2022/11/11 11:07:42;;;;;;;14.25;7.88;;;16.20;73.40;;;;;;5018545;28;20030;-73
2022/11/11 11:10:14;;;;;;;10.70;6.72;;;16.30;72.10;;;;;;5019521;28;20095;-75
2022/11/11 11:13:12;;;;;;;10.35;5.68;;;16.10;72.60;;;;;;5025123;28;20021;-72
2022/11/11 11:15:44;;;;;;;8.10;4.55;;;16.40;74.20;;;;;;5015954;28;20030;-72
2022/11/11 11:18:15;;;;;;;9.40;5.03;;;16.70;74.40;;;;;;5018298;28;20057;-71
2022/11/11 11:21:02;;;;;;;7.35;3.92;;;16.70;75.10;;;;;;5024158;28;20476;-73
2022/11/11 11:23:46;;;;;;;12.23;5.47;;;16.80;76.80;;;;;;5009501;28;20045;-72
2022/11/11 11:26:14;;;;;;;9.25;4.25;;;16.80;74.80;;;;;;5025847;28;20083;-73
2022/11/11 11:29:00;;;;;;;10.73;4.35;;;16.90;75.30;;;;;;5014993;28;20081;-73
2022/11/11 11:31:38;;;;;;;8.52;5.00;;;17.00;75.10;;;;;;5025607;28;20029;-73
2022/11/11 11:34:04;;;;;;;5.97;3.92;;;17.10;74.20;;;;;;5018950;28;20408;-72
2022/11/11 11:36:30;;;;;;;6.85;4.05;;;17.10;74.80;;;;;;5027312;28;20399;-73
2022/11/11 11:38:55;;;;;;;8.60;3.95;;;17.00;76.10;;;;;;5026345;28;20022;-73
2022/11/11 11:41:39;;;;;;;8.40;3.50;;;17.00;78.30;;;;;;5019577;28;20022;-72
2022/11/11 11:44:39;;;;;;;15.60;8.07;;;17.00;77.80;;;;;;5017968;28;20083;-73
2022/11/11 11:47:33;;;;;;;8.30;5.03;;;17.00;75.20;;;;;;5017580;28;20193;-72
2022/11/11 11:50:14;;;;;;;7.90;4.72;;;16.90;76.90;;;;;;5022219;28;20120;-74
2022/11/11 11:53:07;;;;;;;11.25;5.32;;;16.70;76.10;;;;;;5021695;28;20040;-73
2022/11/11 11:55:41;;;;;;;8.40;4.20;;;16.50;75.60;;;;;;5015448;28;20037;-73
2022/11/11 11:58:26;;;;;;;8.85;3.78;;;16.30;77.50;;;;;;5015796;28;20032;-73
2022/11/11 12:01:10;;;;;;;7.07;4.25;;;16.20;78.20;;;;;;5026068;28;20014;-73
2022/11/11 12:03:48;;;;;;;10.23;4.50;;;16.00;78.20;;;;;;5023259;28;20041;-73
2022/11/11 12:06:22;;;;;;;6.05;3.47;;;16.00;77.90;;;;;;5026960;28;20032;-73
2022/11/11 12:09:02;;;;;;;9.88;4.85;;;16.00;78.60;;;;;;5024328;28;20101;-73
2022/11/11 12:12:05;;;;;;;11.38;4.45;;;16.00;79.50;;;;;;5024654;28;20022;-72
2022/11/11 12:14:48;;;;;;;9.57;5.47;;;15.90;79.30;;;;;;5012772;28;20129;-73
2022/11/11 12:17:40;;;;;;;7.30;4.70;;;15.80;78.00;;;;;;5021443;28;20025;-72
2022/11/11 12:20:24;;;;;;;9.25;4.47;;;15.80;78.00;;;;;;5026796;28;20608;-74
2022/11/11 12:23:09;;;;;;;7.78;3.67;;;15.80;78.30;;;;;;5015339;28;20658;-73
2022/11/11 12:26:00;;;;;;;6.90;3.22;;;15.80;78.70;;;;;;5017283;28;20472;-72
2022/11/11 12:28:41;;;;;;;7.85;3.70;;;15.70;79.50;;;;;;5028897;28;20075;-72
2022/11/11 12:31:12;;;;;;;8.68;3.65;;;15.70;79.10;;;;;;5030028;28;20033;-73
2022/11/11 12:34:18;;;;;;;6.05;3.70;;;15.70;78.80;;;;;;5017703;28;20071;-73
2022/11/11 12:37:01;;;;;;;7.50;3.47;;;15.80;77.70;;;;;;5022622;28;20057;-72
2022/11/11 12:39:42;;;;;;;7.43;3.85;;;15.80;77.60;;;;;;5013643;28;20484;-72
2022/11/11 12:42:36;;;;;;;11.90;5.07;;;15.90;76.80;;;;;;5020056;28;20037;-74
2022/11/11 12:45:20;;;;;;;10.60;5.47;;;15.90;74.50;;;;;;5014273;28;20033;-73
2022/11/11 12:47:51;;;;;;;11.05;4.90;;;15.80;73.10;;;;;;5016394;28;20140;-73
2022/11/11 12:50:23;;;;;;;9.95;5.43;;;15.90;72.50;;;;;;5013404;28;20026;-73
2022/11/11 12:53:20;;;;;;;9.85;4.00;;;15.90;72.20;;;;;;5009756;28;20627;-74
2022/11/11 12:56:23;;;;;;;7.18;4.07;;;15.70;72.10;;;;;;5013864;28;20040;-73
2022/11/11 12:58:54;;;;;;;9.88;5.45;;;15.60;72.90;;;;;;5012543;28;20029;-74
2022/11/11 13:01:47;;;;;;;9.13;5.07;;;15.60;72.70;;;;;;5016128;28;20506;-74
2022/11/11 13:04:31;;;;;;;9.63;4.03;;;15.60;72.80;;;;;;5011518;28;20125;-74
2022/11/11 13:07:24;;;;;;;9.07;5.38;;;15.70;72.70;;;;;;5014291;28;20107;-74
2022/11/11 13:10:27;;;;;;;10.63;4.90;;;15.70;72.40;;;;;;5013555;28;20065;-73
2022/11/11 13:12:52;;;;;;;7.78;4.70;;;15.60;72.70;;;;;;5009399;28;20439;-72
2022/11/11 13:15:23;;;;;;;9.40;4.57;;;15.60;72.70;;;;;;5011886;28;20021;-73
2022/11/11 13:17:50;;;;;;;7.47;3.85;;;15.70;73.00;;;;;;5014832;28;20109;-76
2022/11/11 13:20:24;;;;;;;9.48;4.85;;;15.80;76.20;;;;;;5012516;28;20083;-73
2022/11/11 13:22:50;;;;;;;9.45;3.40;;;15.90;74.10;;;;;;5009981;28;20029;-72
2022/11/11 13:25:22;;;;;;;7.43;2.50;;;15.90;74.40;;;;;;5011365;28;20178;-73
2022/11/11 13:27:52;;;;;;;8.23;3.10;;;16.00;76.30;;;;;;5010579;28;20053;-73
2022/11/11 13:30:58;;;;;;;7.28;3.67;;;16.10;76.10;;;;;;5009380;28;20029;-74
2022/11/11 13:33:37;;;;;;;8.73;3.78;;;16.10;74.80;;;;;;5012478;28;20021;-74
2022/11/11 13:36:06;;;;;;;7.20;3.55;;;16.00;74.70;;;;;;5013771;28;20022;-73
2022/11/11 13:38:37;;;;;;;7.28;3.83;;;15.90;73.60;;;;;;5016545;28;20044;-74
2022/11/11 13:41:07;;;;;;;8.95;3.25;;;15.80;73.90;;;;;;5007648;28;20053;-73
2022/11/11 13:43:44;;;;;;;5.93;3.10;;;15.70;73.70;;;;;;5010042;28;20403;-74
2022/11/11 13:46:31;;;;;;;8.63;3.40;;;15.60;73.80;;;;;;5011428;28;20460;-75
2022/11/11 13:48:58;;;;;;;8.77;4.63;;;15.50;75.40;;;;;;5013169;28;20041;-74
2022/11/11 13:51:30;;;;;;;8.00;3.45;;;15.60;74.60;;;;;;5011002;28;20017;-75
2022/11/11 13:53:59;;;;;;;7.07;3.33;;;15.60;74.40;;;;;;5009177;28;20036;-74
2022/11/11 13:56:38;;;;;;;7.03;3.47;;;15.70;74.20;;;;;;5014023;28;20113;-76
2022/11/11 13:59:05;;;;;;;7.97;3.77;;;15.70;74.10;;;;;;5011550;28;20036;-74
2022/11/11 14:01:36;;;;;;;5.93;2.65;;;15.80;73.90;;;;;;5010744;28;20038;-74
2022/11/11 14:04:04;;;;;;;4.95;2.67;;;15.80;74.00;;;;;;5013771;28;20404;-75
2022/11/11 14:06:33;;;;;;;10.55;3.67;;;15.90;73.80;;;;;;5007890;28;20034;-75
2022/11/11 14:08:59;;;;;;;9.93;3.72;;;16.00;72.60;;;;;;5011357;28;20281;-75
2022/11/11 14:11:24;;;;;;;5.72;2.28;;;16.00;72.10;;;;;;5010591;28;20022;-75